Time;durP1;ratioP1;P1;durP2;ratioP2;P2;SDS_P1;SDS_P2;PMS_P1;PMS_P2;Temp;Humidity;BMP_temperature;BMP_pressure;BME280_temperature;BME280_humidity;BME280_pressure;Samples;Min_cycle;Max_cycle;Signal;HPM_P1;HPM_P2
2023/02/08 16:01:30;;;;;;;8.18;5.47;;;1.70;99.90;;;;;;5067931;28;20369;-65
2023/02/08 16:04:04;;;;;;;12.35;6.43;;;1.60;99.90;;;;;;5068732;28;20108;-63
2023/02/08 16:06:36;;;;;;;8.82;5.65;;;1.70;99.90;;;;;;5062113;28;20025;-63
2023/02/08 16:09:02;;;;;;;12.90;6.75;;;1.80;99.90;;;;;;5062771;28;20382;-64
2023/02/08 16:11:31;;;;;;;10.43;6.85;;;1.80;99.90;;;;;;5067084;28;20083;-66
2023/02/08 16:13:59;;;;;;;10.70;6.55;;;1.90;99.90;;;;;;5066689;28;20100;-66
2023/02/08 16:16:41;;;;;;;8.55;6.07;;;2.00;99.90;;;;;;5067140;28;20482;-64
2023/02/08 16:19:30;;;;;;;9.55;6.72;;;2.00;99.90;;;;;;5065743;28;20032;-64
2023/02/08 16:22:14;;;;;;;13.35;7.20;;;2.00;99.90;;;;;;5066722;28;20063;-66
2023/02/08 16:24:39;;;;;;;14.32;6.72;;;2.00;99.90;;;;;;5067153;28;20075;-67
2023/02/08 16:27:16;;;;;;;13.18;7.00;;;2.00;99.90;;;;;;5066888;28;20024;-65
2023/02/08 16:29:46;;;;;;;12.35;7.35;;;2.00;99.90;;;;;;5065774;28;20025;-67
2023/02/08 16:32:23;;;;;;;8.73;5.63;;;1.90;99.90;;;;;;5066836;28;20123;-66
2023/02/08 16:34:49;;;;;;;12.45;6.82;;;1.90;99.90;;;;;;5066554;28;20040;-66
2023/02/08 16:37:29;;;;;;;14.02;6.80;;;1.90;99.90;;;;;;5066780;28;20502;-65
2023/02/08 16:39:58;;;;;;;15.13;6.73;;;1.80;99.90;;;;;;5066457;28;20032;-65
2023/02/08 16:42:43;;;;;;;12.15;5.88;;;1.80;99.90;;;;;;5064554;28;20487;-65
2023/02/08 16:45:11;;;;;;;12.82;6.85;;;1.70;99.90;;;;;;5066763;28;20099;-67
2023/02/08 16:47:40;;;;;;;13.57;7.13;;;1.70;99.90;;;;;;5065806;28;20465;-67
2023/02/08 16:50:07;;;;;;;14.88;7.57;;;1.60;99.90;;;;;;5066116;28;20035;-67
2023/02/08 16:52:33;;;;;;;11.98;7.18;;;1.60;99.90;;;;;;5066305;28;20025;-65
2023/02/08 16:54:59;;;;;;;10.77;6.65;;;1.60;99.90;;;;;;5065753;28;20013;-64
2023/02/08 16:58:01;;;;;;;11.95;6.38;;;1.50;99.90;;;;;;5064019;28;20048;-65
2023/02/08 17:00:32;;;;;;;10.13;5.50;;;1.50;99.90;;;;;;5043438;28;20080;-62
2023/02/08 17:02:58;;;;;;;9.13;6.28;;;1.40;99.90;;;;;;5061996;28;20093;-64
2023/02/08 17:05:28;;;;;;;10.95;6.25;;;1.40;99.90;;;;;;5066168;28;20082;-65
2023/02/08 17:07:54;;;;;;;10.23;5.93;;;1.30;99.90;;;;;;5065981;28;20016;-63
2023/02/08 17:10:24;;;;;;;11.20;6.03;;;1.20;99.90;;;;;;5065163;28;20070;-63
2023/02/08 17:12:50;;;;;;;10.43;5.83;;;1.20;99.90;;;;;;5053051;28;20013;-64
2023/02/08 17:15:17;;;;;;;7.88;5.22;;;1.20;99.90;;;;;;5045492;28;20370;-64
2023/02/08 17:17:42;;;;;;;8.88;5.43;;;1.20;99.90;;;;;;5050981;28;20013;-63
2023/02/08 17:20:26;;;;;;;8.32;4.90;;;1.10;99.90;;;;;;5050421;28;20398;-65
2023/02/08 17:22:54;;;;;;;7.35;4.57;;;1.00;99.90;;;;;;5052023;28;20133;-63
2023/02/08 17:25:20;;;;;;;9.48;4.95;;;0.90;99.90;;;;;;5051127;28;20021;-64
2023/02/08 17:27:49;;;;;;;8.82;4.95;;;0.80;99.90;;;;;;5052245;28;20029;-63
2023/02/08 17:30:28;;;;;;;9.00;4.47;;;0.70;99.90;;;;;;5052077;28;20063;-65
2023/02/08 17:32:57;;;;;;;9.65;5.28;;;0.70;99.90;;;;;;5050343;28;20059;-66
2023/02/08 17:35:27;;;;;;;8.88;5.35;;;0.60;99.90;;;;;;5050964;28;20080;-65
2023/02/08 17:37:54;;;;;;;9.27;4.97;;;0.60;99.90;;;;;;5051223;28;20033;-69
2023/02/08 17:40:25;;;;;;;9.13;4.38;;;0.60;99.90;;;;;;5052069;28;20072;-67
2023/02/08 17:42:52;;;;;;;11.30;5.75;;;0.50;99.90;;;;;;5051438;28;20040;-67
2023/02/08 17:45:18;;;;;;;9.48;5.60;;;0.50;99.90;;;;;;5052002;28;20025;-67
2023/02/08 17:47:45;;;;;;;9.27;6.10;;;0.60;99.90;;;;;;5050159;28;20021;-67
2023/02/08 17:50:14;;;;;;;10.15;6.07;;;0.50;99.90;;;;;;5051956;28;20025;-67
2023/02/08 17:52:40;;;;;;;9.98;6.00;;;0.50;99.90;;;;;;5050865;28;20067;-69
2023/02/08 17:55:08;;;;;;;12.32;6.35;;;0.40;99.90;;;;;;5052592;28;20025;-66
2023/02/08 17:57:38;;;;;;;12.82;6.78;;;0.40;99.90;;;;;;5050868;28;20017;-67
2023/02/08 18:00:05;;;;;;;13.90;7.60;;;0.30;99.90;;;;;;5051135;28;20495;-63
2023/02/08 18:02:30;;;;;;;15.98;8.52;;;0.30;99.90;;;;;;5051380;28;20074;-70
2023/02/08 18:04:56;;;;;;;14.55;8.00;;;0.20;99.90;;;;;;5052362;28;20013;-69
2023/02/08 18:07:21;;;;;;;20.58;9.68;;;0.20;99.90;;;;;;5049455;28;20021;-66
2023/02/08 18:09:47;;;;;;;18.00;8.77;;;0.20;99.90;;;;;;5051728;28;20013;-68
2023/02/08 18:12:13;;;;;;;17.35;9.20;;;0.20;99.90;;;;;;5050032;28;20023;-64
2023/02/08 18:14:39;;;;;;;19.45;9.85;;;0.10;99.90;;;;;;5051411;28;20025;-65
2023/02/08 18:17:04;;;;;;;17.70;10.07;;;0.10;99.90;;;;;;5051742;28;20397;-66
2023/02/08 18:19:30;;;;;;;18.48;9.98;;;0.00;99.90;;;;;;5054673;28;20070;-65
2023/02/08 18:21:59;;;;;;;18.75;10.07;;;0.00;99.90;;;;;;5071183;28;20036;-66
2023/02/08 18:24:26;;;;;;;17.27;9.45;;;-0.20;99.90;;;;;;5040742;28;20060;-66
2023/02/08 18:26:52;;;;;;;15.55;9.32;;;-0.20;99.90;;;;;;5031444;28;20025;-67
2023/02/08 18:29:17;;;;;;;17.20;9.48;;;-0.30;99.90;;;;;;5031309;28;20071;-72
2023/02/08 18:31:43;;;;;;;16.55;9.43;;;-0.30;99.90;;;;;;5031028;28;20037;-66
2023/02/08 18:34:09;;;;;;;16.02;8.20;;;-0.30;99.90;;;;;;5031026;28;20467;-66
2023/02/08 18:36:35;;;;;;;15.27;8.60;;;-0.40;99.90;;;;;;5031338;28;20043;-64
2023/02/08 18:39:01;;;;;;;17.15;9.55;;;-0.40;99.90;;;;;;5031947;28;20174;-66
2023/02/08 18:41:28;;;;;;;16.67;8.48;;;-0.50;99.90;;;;;;5030596;28;20215;-66
2023/02/08 18:43:56;;;;;;;21.80;9.73;;;-0.50;99.90;;;;;;5030628;28;20549;-65
2023/02/08 18:46:23;;;;;;;18.02;9.77;;;-0.50;99.90;;;;;;5030976;28;20029;-64
2023/02/08 18:48:50;;;;;;;15.85;9.00;;;-0.50;99.90;;;;;;5028966;28;20018;-65
2023/02/08 18:51:18;;;;;;;15.80;9.30;;;-0.50;99.90;;;;;;5030080;28;20025;-65
2023/02/08 18:53:49;;;;;;;17.55;9.68;;;-0.60;99.90;;;;;;5029041;28;20055;-67
2023/02/08 18:56:15;;;;;;;15.68;8.75;;;-0.60;99.90;;;;;;5029176;28;20136;-65
2023/02/08 18:58:40;;;;;;;12.70;7.85;;;-0.70;99.90;;;;;;5030453;28;20112;-66
2023/02/08 19:01:12;;;;;;;15.63;8.30;;;-0.60;99.90;;;;;;5031465;28;20080;-66
2023/02/08 19:03:38;;;;;;;11.63;6.80;;;-0.70;99.90;;;;;;5048581;28;20025;-71
2023/02/08 19:06:25;;;;;;;12.80;7.55;;;-0.70;99.90;;;;;;5049510;28;20028;-70
2023/02/08 19:08:53;;;;;;;15.55;8.15;;;-0.70;99.90;;;;;;5050085;28;20017;-68
2023/02/08 19:11:20;;;;;;;13.93;7.80;;;-0.60;99.90;;;;;;5050027;28;20032;-64
2023/02/08 19:13:46;;;;;;;13.98;6.78;;;-0.70;99.90;;;;;;5049475;28;20440;-70
2023/02/08 19:16:13;;;;;;;10.82;6.82;;;-0.70;99.90;;;;;;5049713;28;20032;-69
2023/02/08 19:18:39;;;;;;;14.38;8.00;;;-0.60;99.90;;;;;;5050477;28;20071;-68
2023/02/08 19:21:08;;;;;;;12.23;6.90;;;-0.70;99.90;;;;;;5050297;28;20059;-63
2023/02/08 19:23:34;;;;;;;10.80;7.57;;;-0.70;99.90;;;;;;5048826;28;20500;-69
2023/02/08 19:26:08;;;;;;;13.63;8.35;;;-0.70;99.90;;;;;;5053748;28;20042;-67
2023/02/08 19:28:34;;;;;;;15.45;8.15;;;-0.70;99.90;;;;;;5069613;28;20025;-71
2023/02/08 19:31:03;;;;;;;13.10;8.27;;;-0.80;99.90;;;;;;5069866;28;20544;-69
2023/02/08 19:33:30;;;;;;;14.00;8.27;;;-0.90;99.90;;;;;;5069569;28;20039;-70
2023/02/08 19:35:55;;;;;;;13.68;8.43;;;-0.90;99.90;;;;;;5070002;28;20090;-69
2023/02/08 19:38:21;;;;;;;15.57;8.07;;;-0.90;99.90;;;;;;5061232;28;20044;-68
2023/02/08 19:40:53;;;;;;;15.05;8.07;;;-0.90;99.90;;;;;;5050445;28;20596;-70
2023/02/08 19:43:19;;;;;;;12.93;7.38;;;-1.00;99.90;;;;;;5049820;28;20053;-67
2023/02/08 19:45:45;;;;;;;14.98;8.38;;;-1.00;99.90;;;;;;5049532;28;20048;-69
2023/02/08 19:48:10;;;;;;;19.85;10.07;;;-1.00;99.90;;;;;;5048301;28;20096;-71
2023/02/08 19:50:36;;;;;;;22.15;10.18;;;-1.00;99.90;;;;;;5049013;28;20474;-69
2023/02/08 19:53:01;;;;;;;19.52;9.63;;;-1.00;99.90;;;;;;5049826;28;20544;-71
2023/02/08 19:55:27;;;;;;;19.98;10.32;;;-1.10;99.90;;;;;;5050134;28;20033;-70
2023/02/08 19:57:53;;;;;;;17.48;10.68;;;-1.10;99.90;;;;;;5049811;28;20035;-72
2023/02/08 20:00:18;;;;;;;17.08;9.57;;;-1.20;99.90;;;;;;5049835;28;20145;-64
2023/02/08 20:02:44;;;;;;;19.08;8.23;;;-1.30;99.90;;;;;;5049092;28;20454;-72
2023/02/08 20:05:09;;;;;;;13.40;7.60;;;-1.20;99.90;;;;;;5048844;28;20044;-72
2023/02/08 20:07:35;;;;;;;16.08;8.15;;;-1.30;99.90;;;;;;5047504;28;20036;-66
2023/02/08 20:10:01;;;;;;;11.43;6.18;;;-1.30;99.90;;;;;;5050290;28;20067;-66
